sensor_id;sensor_type;location;lat;lon;timestamp;P1;durP1;ratioP1;P2;durP2;ratioP2
57047;SDS011;42934;54.294;18.598;2022-11-23T00:00:32;47.40;;;17.80;;
57047;SDS011;42934;54.294;18.598;2022-11-23T00:03:21;45.90;;;17.73;;
57047;SDS011;42934;54.294;18.598;2022-11-23T00:05:51;50.07;;;19.23;;
57047;SDS011;42934;54.294;18.598;2022-11-23T00:08:20;43.97;;;18.40;;
57047;SDS011;42934;54.294;18.598;2022-11-23T00:10:49;45.92;;;19.02;;
57047;SDS011;42934;54.294;18.598;2022-11-23T00:13:18;46.85;;;19.10;;
57047;SDS011;42934;54.294;18.598;2022-11-23T00:15:49;45.90;;;18.73;;
57047;SDS011;42934;54.294;18.598;2022-11-23T00:18:18;45.55;;;18.38;;
57047;SDS011;42934;54.294;18.598;2022-11-23T00:20:48;49.95;;;18.08;;
57047;SDS011;42934;54.294;18.598;2022-11-23T00:23:17;42.80;;;17.55;;
57047;SDS011;42934;54.294;18.598;2022-11-23T00:25:46;42.25;;;18.30;;
57047;SDS011;42934;54.294;18.598;2022-11-23T00:28:15;49.83;;;18.85;;
57047;SDS011;42934;54.294;18.598;2022-11-23T00:30:47;47.00;;;18.42;;
57047;SDS011;42934;54.294;18.598;2022-11-23T00:33:18;43.10;;;17.48;;
57047;SDS011;42934;54.294;18.598;2022-11-23T00:35:47;43.73;;;17.50;;
57047;SDS011;42934;54.294;18.598;2022-11-23T00:38:29;51.50;;;19.45;;
57047;SDS011;42934;54.294;18.598;2022-11-23T00:40:59;47.22;;;20.05;;
57047;SDS011;42934;54.294;18.598;2022-11-23T00:43:29;53.08;;;20.45;;
57047;SDS011;42934;54.294;18.598;2022-11-23T00:46:04;48.70;;;19.60;;
57047;SDS011;42934;54.294;18.598;2022-11-23T00:48:35;48.40;;;20.35;;
57047;SDS011;42934;54.294;18.598;2022-11-23T00:51:05;50.22;;;20.95;;
57047;SDS011;42934;54.294;18.598;2022-11-23T00:53:35;49.92;;;19.83;;
57047;SDS011;42934;54.294;18.598;2022-11-23T00:56:05;51.88;;;19.65;;
57047;SDS011;42934;54.294;18.598;2022-11-23T00:58:35;52.85;;;19.90;;
57047;SDS011;42934;54.294;18.598;2022-11-23T01:01:07;56.45;;;21.23;;
57047;SDS011;42934;54.294;18.598;2022-11-23T01:03:39;51.08;;;20.45;;
57047;SDS011;42934;54.294;18.598;2022-11-23T01:06:12;48.33;;;19.00;;
57047;SDS011;42934;54.294;18.598;2022-11-23T01:08:46;50.97;;;20.35;;
57047;SDS011;42934;54.294;18.598;2022-11-23T01:11:17;49.13;;;20.02;;
57047;SDS011;42934;54.294;18.598;2022-11-23T01:13:47;49.83;;;19.85;;
57047;SDS011;42934;54.294;18.598;2022-11-23T01:16:19;51.90;;;20.42;;
57047;SDS011;42934;54.294;18.598;2022-11-23T01:18:51;47.05;;;20.45;;
57047;SDS011;42934;54.294;18.598;2022-11-23T01:21:22;48.03;;;19.88;;
57047;SDS011;42934;54.294;18.598;2022-11-23T01:23:52;48.47;;;20.20;;
57047;SDS011;42934;54.294;18.598;2022-11-23T01:26:22;52.83;;;20.70;;
57047;SDS011;42934;54.294;18.598;2022-11-23T01:28:52;54.67;;;21.15;;
57047;SDS011;42934;54.294;18.598;2022-11-23T01:31:24;50.25;;;20.15;;
57047;SDS011;42934;54.294;18.598;2022-11-23T01:33:54;51.30;;;19.77;;
57047;SDS011;42934;54.294;18.598;2022-11-23T01:36:25;52.10;;;20.17;;
57047;SDS011;42934;54.294;18.598;2022-11-23T01:38:56;51.03;;;20.02;;
57047;SDS011;42934;54.294;18.598;2022-11-23T01:41:26;51.03;;;20.00;;
57047;SDS011;42934;54.294;18.598;2022-11-23T01:43:57;49.88;;;20.55;;
57047;SDS011;42934;54.294;18.598;2022-11-23T01:46:29;50.08;;;20.02;;
57047;SDS011;42934;54.294;18.598;2022-11-23T01:48:59;50.40;;;20.77;;
57047;SDS011;42934;54.294;18.598;2022-11-23T01:51:32;48.55;;;20.25;;
57047;SDS011;42934;54.294;18.598;2022-11-23T01:54:05;51.83;;;21.13;;
57047;SDS011;42934;54.294;18.598;2022-11-23T01:56:38;52.05;;;21.70;;
57047;SDS011;42934;54.294;18.598;2022-11-23T01:59:12;48.83;;;21.30;;
57047;SDS011;42934;54.294;18.598;2022-11-23T02:01:45;46.20;;;19.55;;
57047;SDS011;42934;54.294;18.598;2022-11-23T02:04:18;49.00;;;20.98;;
57047;SDS011;42934;54.294;18.598;2022-11-23T02:06:52;47.63;;;20.35;;
57047;SDS011;42934;54.294;18.598;2022-11-23T02:09:25;52.75;;;21.15;;
57047;SDS011;42934;54.294;18.598;2022-11-23T02:11:56;53.15;;;20.90;;
57047;SDS011;42934;54.294;18.598;2022-11-23T02:14:26;47.70;;;20.42;;
57047;SDS011;42934;54.294;18.598;2022-11-23T02:16:58;45.08;;;20.13;;
57047;SDS011;42934;54.294;18.598;2022-11-23T02:19:29;49.65;;;20.73;;
57047;SDS011;42934;54.294;18.598;2022-11-23T02:22:10;50.17;;;20.27;;
57047;SDS011;42934;54.294;18.598;2022-11-23T02:24:48;49.20;;;19.35;;
57047;SDS011;42934;54.294;18.598;2022-11-23T02:27:25;42.95;;;18.27;;
57047;SDS011;42934;54.294;18.598;2022-11-23T02:29:56;46.08;;;19.17;;
57047;SDS011;42934;54.294;18.598;2022-11-23T02:32:28;44.17;;;19.10;;
57047;SDS011;42934;54.294;18.598;2022-11-23T02:34:57;45.15;;;18.92;;
57047;SDS011;42934;54.294;18.598;2022-11-23T02:37:27;44.67;;;19.20;;
57047;SDS011;42934;54.294;18.598;2022-11-23T02:39:56;49.40;;;20.98;;
57047;SDS011;42934;54.294;18.598;2022-11-23T02:42:28;48.50;;;19.40;;
57047;SDS011;42934;54.294;18.598;2022-11-23T02:44:59;51.53;;;20.52;;
57047;SDS011;42934;54.294;18.598;2022-11-23T02:47:36;47.40;;;19.40;;
57047;SDS011;42934;54.294;18.598;2022-11-23T02:50:07;49.45;;;19.70;;
57047;SDS011;42934;54.294;18.598;2022-11-23T02:52:37;46.58;;;19.48;;
57047;SDS011;42934;54.294;18.598;2022-11-23T02:55:06;46.22;;;19.40;;
57047;SDS011;42934;54.294;18.598;2022-11-23T02:57:38;45.33;;;20.27;;
57047;SDS011;42934;54.294;18.598;2022-11-23T03:00:09;48.03;;;19.52;;
57047;SDS011;42934;54.294;18.598;2022-11-23T03:02:41;46.58;;;20.25;;
57047;SDS011;42934;54.294;18.598;2022-11-23T03:05:10;48.55;;;19.92;;
57047;SDS011;42934;54.294;18.598;2022-11-23T03:07:40;42.37;;;19.77;;
57047;SDS011;42934;54.294;18.598;2022-11-23T03:10:11;46.30;;;19.70;;
57047;SDS011;42934;54.294;18.598;2022-11-23T03:12:45;51.15;;;20.75;;
57047;SDS011;42934;54.294;18.598;2022-11-23T03:15:14;49.45;;;20.83;;
57047;SDS011;42934;54.294;18.598;2022-11-23T03:17:44;47.38;;;19.50;;
57047;SDS011;42934;54.294;18.598;2022-11-23T03:20:14;44.75;;;19.58;;
57047;SDS011;42934;54.294;18.598;2022-11-23T03:22:48;44.60;;;19.67;;
57047;SDS011;42934;54.294;18.598;2022-11-23T03:25:18;48.78;;;19.38;;
57047;SDS011;42934;54.294;18.598;2022-11-23T03:27:53;44.90;;;18.65;;
57047;SDS011;42934;54.294;18.598;2022-11-23T03:30:22;46.80;;;19.42;;
57047;SDS011;42934;54.294;18.598;2022-11-23T03:35:22;43.97;;;17.83;;
57047;SDS011;42934;54.294;18.598;2022-11-23T03:38:10;44.30;;;18.60;;
57047;SDS011;42934;54.294;18.598;2022-11-23T03:40:42;48.78;;;20.42;;
57047;SDS011;42934;54.294;18.598;2022-11-23T03:43:20;45.17;;;19.45;;
57047;SDS011;42934;54.294;18.598;2022-11-23T03:45:50;45.35;;;19.52;;
57047;SDS011;42934;54.294;18.598;2022-11-23T03:48:20;46.88;;;19.23;;
57047;SDS011;42934;54.294;18.598;2022-11-23T03:50:49;44.28;;;19.70;;
57047;SDS011;42934;54.294;18.598;2022-11-23T03:55:49;43.17;;;17.23;;
57047;SDS011;42934;54.294;18.598;2022-11-23T03:58:24;41.72;;;17.88;;
57047;SDS011;42934;54.294;18.598;2022-11-23T04:00:53;46.53;;;20.00;;
57047;SDS011;42934;54.294;18.598;2022-11-23T04:03:23;47.83;;;19.38;;
57047;SDS011;42934;54.294;18.598;2022-11-23T04:06:01;44.65;;;17.95;;
57047;SDS011;42934;54.294;18.598;2022-11-23T04:08:49;42.72;;;19.08;;
57047;SDS011;42934;54.294;18.598;2022-11-23T04:11:43;44.65;;;19.63;;
57047;SDS011;42934;54.294;18.598;2022-11-23T04:14:14;46.70;;;18.75;;
57047;SDS011;42934;54.294;18.598;2022-11-23T04:16:43;43.95;;;17.52;;
57047;SDS011;42934;54.294;18.598;2022-11-23T04:19:13;43.65;;;18.83;;
57047;SDS011;42934;54.294;18.598;2022-11-23T04:21:42;46.00;;;18.37;;
57047;SDS011;42934;54.294;18.598;2022-11-23T04:24:13;45.90;;;18.70;;
57047;SDS011;42934;54.294;18.598;2022-11-23T04:26:43;43.08;;;18.10;;
57047;SDS011;42934;54.294;18.598;2022-11-23T04:29:15;39.85;;;17.40;;
57047;SDS011;42934;54.294;18.598;2022-11-23T04:31:50;43.60;;;17.95;;
57047;SDS011;42934;54.294;18.598;2022-11-23T04:36:52;44.85;;;17.85;;
57047;SDS011;42934;54.294;18.598;2022-11-23T04:39:28;40.42;;;16.05;;
57047;SDS011;42934;54.294;18.598;2022-11-23T04:42:15;46.33;;;17.40;;
57047;SDS011;42934;54.294;18.598;2022-11-23T04:44:53;45.35;;;18.98;;
57047;SDS011;42934;54.294;18.598;2022-11-23T04:47:23;44.03;;;17.67;;
57047;SDS011;42934;54.294;18.598;2022-11-23T04:49:55;46.50;;;18.02;;
57047;SDS011;42934;54.294;18.598;2022-11-23T04:52:24;40.03;;;16.50;;
57047;SDS011;42934;54.294;18.598;2022-11-23T04:54:53;49.30;;;18.73;;
57047;SDS011;42934;54.294;18.598;2022-11-23T04:57:23;44.50;;;18.10;;
57047;SDS011;42934;54.294;18.598;2022-11-23T04:59:54;43.17;;;18.15;;
57047;SDS011;42934;54.294;18.598;2022-11-23T05:02:24;48.20;;;18.85;;
57047;SDS011;42934;54.294;18.598;2022-11-23T05:05:02;50.60;;;19.20;;
57047;SDS011;42934;54.294;18.598;2022-11-23T05:07:32;49.38;;;18.15;;
57047;SDS011;42934;54.294;18.598;2022-11-23T05:10:03;46.22;;;18.42;;
57047;SDS011;42934;54.294;18.598;2022-11-23T05:12:34;46.60;;;17.17;;
57047;SDS011;42934;54.294;18.598;2022-11-23T05:15:05;49.35;;;17.75;;
57047;SDS011;42934;54.294;18.598;2022-11-23T05:17:37;46.67;;;18.13;;
57047;SDS011;42934;54.294;18.598;2022-11-23T05:20:12;44.78;;;18.00;;
57047;SDS011;42934;54.294;18.598;2022-11-23T05:22:46;50.08;;;18.63;;
57047;SDS011;42934;54.294;18.598;2022-11-23T05:25:20;50.90;;;18.30;;
57047;SDS011;42934;54.294;18.598;2022-11-23T05:27:57;49.47;;;18.40;;
57047;SDS011;42934;54.294;18.598;2022-11-23T05:30:48;46.20;;;18.40;;
57047;SDS011;42934;54.294;18.598;2022-11-23T05:33:17;51.45;;;18.95;;
57047;SDS011;42934;54.294;18.598;2022-11-23T05:35:47;48.83;;;19.55;;
57047;SDS011;42934;54.294;18.598;2022-11-23T05:38:24;50.40;;;19.73;;
57047;SDS011;42934;54.294;18.598;2022-11-23T05:40:57;42.22;;;16.67;;
57047;SDS011;42934;54.294;18.598;2022-11-23T05:43:27;51.53;;;20.73;;
57047;SDS011;42934;54.294;18.598;2022-11-23T05:48:29;53.40;;;20.13;;
57047;SDS011;42934;54.294;18.598;2022-11-23T05:50:59;49.50;;;18.85;;
57047;SDS011;42934;54.294;18.598;2022-11-23T05:53:34;54.10;;;20.08;;
57047;SDS011;42934;54.294;18.598;2022-11-23T05:56:28;55.40;;;18.60;;
57047;SDS011;42934;54.294;18.598;2022-11-23T05:59:11;59.92;;;20.75;;
57047;SDS011;42934;54.294;18.598;2022-11-23T06:01:46;58.05;;;22.10;;
57047;SDS011;42934;54.294;18.598;2022-11-23T06:04:23;61.55;;;21.15;;
57047;SDS011;42934;54.294;18.598;2022-11-23T06:06:54;61.03;;;22.98;;
57047;SDS011;42934;54.294;18.598;2022-11-23T06:09:33;56.85;;;22.38;;
57047;SDS011;42934;54.294;18.598;2022-11-23T06:12:07;56.63;;;20.15;;
57047;SDS011;42934;54.294;18.598;2022-11-23T06:14:36;58.47;;;21.40;;
57047;SDS011;42934;54.294;18.598;2022-11-23T06:17:07;51.38;;;20.27;;
57047;SDS011;42934;54.294;18.598;2022-11-23T06:19:42;59.97;;;21.65;;
57047;SDS011;42934;54.294;18.598;2022-11-23T06:22:11;57.80;;;21.85;;
57047;SDS011;42934;54.294;18.598;2022-11-23T06:24:53;56.30;;;20.45;;
57047;SDS011;42934;54.294;18.598;2022-11-23T06:27:50;65.95;;;23.58;;
57047;SDS011;42934;54.294;18.598;2022-11-23T06:30:28;57.47;;;20.83;;
57047;SDS011;42934;54.294;18.598;2022-11-23T06:33:04;58.65;;;21.05;;
57047;SDS011;42934;54.294;18.598;2022-11-23T06:35:50;57.70;;;23.13;;
57047;SDS011;42934;54.294;18.598;2022-11-23T06:38:22;59.23;;;22.47;;
57047;SDS011;42934;54.294;18.598;2022-11-23T06:40:59;62.13;;;22.45;;
57047;SDS011;42934;54.294;18.598;2022-11-23T06:43:30;59.63;;;22.02;;
57047;SDS011;42934;54.294;18.598;2022-11-23T06:46:02;64.43;;;22.30;;
57047;SDS011;42934;54.294;18.598;2022-11-23T06:48:37;64.07;;;25.40;;
57047;SDS011;42934;54.294;18.598;2022-11-23T06:51:11;58.00;;;21.17;;
57047;SDS011;42934;54.294;18.598;2022-11-23T06:53:40;64.85;;;23.77;;
57047;SDS011;42934;54.294;18.598;2022-11-23T06:56:12;61.08;;;21.88;;
57047;SDS011;42934;54.294;18.598;2022-11-23T06:58:42;58.72;;;22.23;;
57047;SDS011;42934;54.294;18.598;2022-11-23T07:01:16;57.85;;;21.23;;
57047;SDS011;42934;54.294;18.598;2022-11-23T07:04:07;58.33;;;21.08;;
57047;SDS011;42934;54.294;18.598;2022-11-23T07:06:44;53.30;;;20.52;;
57047;SDS011;42934;54.294;18.598;2022-11-23T07:12:13;59.45;;;20.67;;
57047;SDS011;42934;54.294;18.598;2022-11-23T07:14:43;63.72;;;22.98;;
57047;SDS011;42934;54.294;18.598;2022-11-23T07:17:12;54.88;;;21.35;;
57047;SDS011;42934;54.294;18.598;2022-11-23T07:19:45;56.60;;;21.08;;
57047;SDS011;42934;54.294;18.598;2022-11-23T07:22:14;66.07;;;21.88;;
57047;SDS011;42934;54.294;18.598;2022-11-23T07:24:44;66.55;;;22.90;;
57047;SDS011;42934;54.294;18.598;2022-11-23T07:27:15;54.97;;;21.08;;
57047;SDS011;42934;54.294;18.598;2022-11-23T07:29:46;56.67;;;20.60;;
57047;SDS011;42934;54.294;18.598;2022-11-23T07:32:15;64.60;;;22.33;;
57047;SDS011;42934;54.294;18.598;2022-11-23T07:34:46;64.30;;;23.60;;
57047;SDS011;42934;54.294;18.598;2022-11-23T07:37:16;61.20;;;22.10;;
57047;SDS011;42934;54.294;18.598;2022-11-23T07:39:45;63.63;;;22.53;;
57047;SDS011;42934;54.294;18.598;2022-11-23T07:42:24;61.33;;;22.27;;
57047;SDS011;42934;54.294;18.598;2022-11-23T07:45:01;59.15;;;21.10;;
57047;SDS011;42934;54.294;18.598;2022-11-23T07:47:31;55.85;;;21.67;;
57047;SDS011;42934;54.294;18.598;2022-11-23T07:50:03;61.15;;;22.08;;
57047;SDS011;42934;54.294;18.598;2022-11-23T07:52:34;59.42;;;20.85;;
57047;SDS011;42934;54.294;18.598;2022-11-23T07:55:04;53.70;;;19.33;;
57047;SDS011;42934;54.294;18.598;2022-11-23T07:57:34;59.20;;;21.48;;
57047;SDS011;42934;54.294;18.598;2022-11-23T08:00:04;59.00;;;20.77;;
57047;SDS011;42934;54.294;18.598;2022-11-23T08:02:37;58.13;;;20.77;;
57047;SDS011;42934;54.294;18.598;2022-11-23T08:05:29;62.17;;;21.42;;
57047;SDS011;42934;54.294;18.598;2022-11-23T08:07:59;55.05;;;20.02;;
57047;SDS011;42934;54.294;18.598;2022-11-23T08:10:30;51.75;;;19.42;;
57047;SDS011;42934;54.294;18.598;2022-11-23T08:13:05;58.70;;;21.85;;
57047;SDS011;42934;54.294;18.598;2022-11-23T08:15:35;58.15;;;22.25;;
57047;SDS011;42934;54.294;18.598;2022-11-23T08:18:04;56.53;;;20.17;;
57047;SDS011;42934;54.294;18.598;2022-11-23T08:20:35;58.35;;;20.83;;
57047;SDS011;42934;54.294;18.598;2022-11-23T08:23:04;54.60;;;19.55;;
57047;SDS011;42934;54.294;18.598;2022-11-23T08:25:34;60.10;;;20.30;;
57047;SDS011;42934;54.294;18.598;2022-11-23T08:28:03;61.47;;;21.75;;
57047;SDS011;42934;54.294;18.598;2022-11-23T08:30:33;55.42;;;20.92;;
57047;SDS011;42934;54.294;18.598;2022-11-23T08:33:03;58.30;;;19.73;;
57047;SDS011;42934;54.294;18.598;2022-11-23T08:35:33;56.70;;;20.60;;
57047;SDS011;42934;54.294;18.598;2022-11-23T08:38:05;60.50;;;19.40;;
57047;SDS011;42934;54.294;18.598;2022-11-23T08:40:35;60.85;;;21.52;;
57047;SDS011;42934;54.294;18.598;2022-11-23T08:43:05;55.13;;;19.23;;
57047;SDS011;42934;54.294;18.598;2022-11-23T08:45:35;54.43;;;20.43;;
57047;SDS011;42934;54.294;18.598;2022-11-23T08:48:04;60.63;;;21.65;;
57047;SDS011;42934;54.294;18.598;2022-11-23T08:50:36;51.53;;;20.00;;
57047;SDS011;42934;54.294;18.598;2022-11-23T08:53:05;55.53;;;19.92;;
57047;SDS011;42934;54.294;18.598;2022-11-23T08:55:34;60.80;;;22.50;;
57047;SDS011;42934;54.294;18.598;2022-11-23T08:58:04;63.03;;;23.63;;
57047;SDS011;42934;54.294;18.598;2022-11-23T09:00:39;63.30;;;23.27;;
57047;SDS011;42934;54.294;18.598;2022-11-23T09:03:08;64.68;;;21.98;;
57047;SDS011;42934;54.294;18.598;2022-11-23T09:05:39;63.50;;;22.23;;
57047;SDS011;42934;54.294;18.598;2022-11-23T09:08:08;60.60;;;20.77;;
57047;SDS011;42934;54.294;18.598;2022-11-23T09:10:38;58.88;;;19.80;;
57047;SDS011;42934;54.294;18.598;2022-11-23T09:13:07;59.10;;;21.65;;
57047;SDS011;42934;54.294;18.598;2022-11-23T09:15:36;56.47;;;20.10;;
57047;SDS011;42934;54.294;18.598;2022-11-23T09:18:06;57.87;;;20.90;;
57047;SDS011;42934;54.294;18.598;2022-11-23T09:20:38;61.65;;;21.40;;
57047;SDS011;42934;54.294;18.598;2022-11-23T09:23:09;61.90;;;22.50;;
57047;SDS011;42934;54.294;18.598;2022-11-23T09:25:40;60.10;;;20.55;;
57047;SDS011;42934;54.294;18.598;2022-11-23T09:28:13;57.42;;;21.55;;
57047;SDS011;42934;54.294;18.598;2022-11-23T09:30:45;62.97;;;20.73;;
57047;SDS011;42934;54.294;18.598;2022-11-23T09:33:14;59.90;;;20.88;;
57047;SDS011;42934;54.294;18.598;2022-11-23T09:35:45;65.25;;;22.85;;
57047;SDS011;42934;54.294;18.598;2022-11-23T09:38:15;61.05;;;21.05;;
57047;SDS011;42934;54.294;18.598;2022-11-23T09:40:44;61.15;;;21.90;;
57047;SDS011;42934;54.294;18.598;2022-11-23T09:43:16;68.10;;;22.33;;
57047;SDS011;42934;54.294;18.598;2022-11-23T09:46:06;60.23;;;21.37;;
57047;SDS011;42934;54.294;18.598;2022-11-23T09:48:50;54.58;;;19.80;;
57047;SDS011;42934;54.294;18.598;2022-11-23T09:51:36;56.33;;;21.25;;
57047;SDS011;42934;54.294;18.598;2022-11-23T09:54:14;51.35;;;19.30;;
57047;SDS011;42934;54.294;18.598;2022-11-23T09:56:53;58.25;;;22.08;;
57047;SDS011;42934;54.294;18.598;2022-11-23T09:59:35;69.57;;;23.10;;
57047;SDS011;42934;54.294;18.598;2022-11-23T10:02:09;64.82;;;22.63;;
57047;SDS011;42934;54.294;18.598;2022-11-23T10:04:48;56.35;;;20.52;;
57047;SDS011;42934;54.294;18.598;2022-11-23T10:07:24;51.42;;;20.27;;
57047;SDS011;42934;54.294;18.598;2022-11-23T10:10:07;53.30;;;19.88;;
57047;SDS011;42934;54.294;18.598;2022-11-23T10:12:49;59.58;;;20.85;;
57047;SDS011;42934;54.294;18.598;2022-11-23T10:15:27;52.90;;;20.27;;
57047;SDS011;42934;54.294;18.598;2022-11-23T10:18:08;57.10;;;19.65;;
57047;SDS011;42934;54.294;18.598;2022-11-23T10:20:54;52.97;;;19.52;;
57047;SDS011;42934;54.294;18.598;2022-11-23T10:23:33;60.55;;;21.88;;
57047;SDS011;42934;54.294;18.598;2022-11-23T10:26:12;61.65;;;22.35;;
57047;SDS011;42934;54.294;18.598;2022-11-23T10:28:44;56.03;;;21.10;;
57047;SDS011;42934;54.294;18.598;2022-11-23T10:31:15;53.85;;;19.75;;
57047;SDS011;42934;54.294;18.598;2022-11-23T10:33:52;56.30;;;21.05;;
57047;SDS011;42934;54.294;18.598;2022-11-23T10:36:26;61.08;;;21.08;;
57047;SDS011;42934;54.294;18.598;2022-11-23T10:38:57;59.78;;;21.10;;
57047;SDS011;42934;54.294;18.598;2022-11-23T10:41:29;59.47;;;22.85;;
57047;SDS011;42934;54.294;18.598;2022-11-23T10:44:00;63.00;;;21.35;;
57047;SDS011;42934;54.294;18.598;2022-11-23T10:46:38;49.85;;;20.52;;
57047;SDS011;42934;54.294;18.598;2022-11-23T10:49:09;59.90;;;21.25;;
57047;SDS011;42934;54.294;18.598;2022-11-23T10:54:31;61.80;;;20.92;;
57047;SDS011;42934;54.294;18.598;2022-11-23T10:57:19;57.15;;;19.17;;
57047;SDS011;42934;54.294;18.598;2022-11-23T10:59:55;54.17;;;20.08;;
57047;SDS011;42934;54.294;18.598;2022-11-23T11:02:26;54.55;;;21.13;;
57047;SDS011;42934;54.294;18.598;2022-11-23T11:05:11;64.05;;;23.05;;
57047;SDS011;42934;54.294;18.598;2022-11-23T11:08:12;61.00;;;19.95;;
57047;SDS011;42934;54.294;18.598;2022-11-23T11:10:46;51.33;;;19.02;;
57047;SDS011;42934;54.294;18.598;2022-11-23T11:13:20;59.15;;;21.10;;
57047;SDS011;42934;54.294;18.598;2022-11-23T11:15:56;50.47;;;20.27;;
57047;SDS011;42934;54.294;18.598;2022-11-23T11:18:28;63.28;;;21.20;;
57047;SDS011;42934;54.294;18.598;2022-11-23T11:21:00;56.05;;;20.38;;
57047;SDS011;42934;54.294;18.598;2022-11-23T11:23:32;49.42;;;18.65;;
57047;SDS011;42934;54.294;18.598;2022-11-23T11:26:08;60.80;;;22.23;;
57047;SDS011;42934;54.294;18.598;2022-11-23T11:28:46;58.90;;;22.17;;
57047;SDS011;42934;54.294;18.598;2022-11-23T11:34:16;57.10;;;20.60;;
57047;SDS011;42934;54.294;18.598;2022-11-23T11:36:53;56.33;;;19.92;;
57047;SDS011;42934;54.294;18.598;2022-11-23T11:39:31;56.13;;;20.10;;
57047;SDS011;42934;54.294;18.598;2022-11-23T11:42:10;52.15;;;20.80;;
57047;SDS011;42934;54.294;18.598;2022-11-23T11:44:45;58.42;;;20.80;;
57047;SDS011;42934;54.294;18.598;2022-11-23T11:47:21;56.85;;;20.45;;
57047;SDS011;42934;54.294;18.598;2022-11-23T11:49:57;54.17;;;19.88;;
57047;SDS011;42934;54.294;18.598;2022-11-23T11:52:31;51.72;;;19.15;;
57047;SDS011;42934;54.294;18.598;2022-11-23T11:55:04;57.90;;;21.75;;
57047;SDS011;42934;54.294;18.598;2022-11-23T11:57:42;60.55;;;21.30;;
57047;SDS011;42934;54.294;18.598;2022-11-23T12:00:16;54.25;;;19.02;;
57047;SDS011;42934;54.294;18.598;2022-11-23T12:02:53;55.63;;;20.38;;
57047;SDS011;42934;54.294;18.598;2022-11-23T12:05:29;57.75;;;22.50;;
57047;SDS011;42934;54.294;18.598;2022-11-23T12:08:07;53.20;;;20.27;;
57047;SDS011;42934;54.294;18.598;2022-11-23T12:10:42;57.78;;;20.42;;
57047;SDS011;42934;54.294;18.598;2022-11-23T12:13:18;57.58;;;21.20;;
57047;SDS011;42934;54.294;18.598;2022-11-23T12:15:52;53.92;;;19.35;;
57047;SDS011;42934;54.294;18.598;2022-11-23T12:18:37;56.15;;;20.40;;
57047;SDS011;42934;54.294;18.598;2022-11-23T12:21:18;47.55;;;18.33;;
57047;SDS011;42934;54.294;18.598;2022-11-23T12:24:06;57.05;;;20.50;;
57047;SDS011;42934;54.294;18.598;2022-11-23T12:26:45;53.92;;;20.67;;
57047;SDS011;42934;54.294;18.598;2022-11-23T12:29:26;50.42;;;19.33;;
57047;SDS011;42934;54.294;18.598;2022-11-23T12:32:16;57.05;;;20.63;;
57047;SDS011;42934;54.294;18.598;2022-11-23T12:34:59;59.53;;;21.80;;
57047;SDS011;42934;54.294;18.598;2022-11-23T12:37:43;52.13;;;19.20;;
57047;SDS011;42934;54.294;18.598;2022-11-23T12:40:25;48.63;;;19.10;;
57047;SDS011;42934;54.294;18.598;2022-11-23T12:43:12;55.80;;;19.42;;
57047;SDS011;42934;54.294;18.598;2022-11-23T12:45:57;54.20;;;20.45;;
57047;SDS011;42934;54.294;18.598;2022-11-23T12:48:42;55.10;;;19.38;;
57047;SDS011;42934;54.294;18.598;2022-11-23T12:51:35;55.67;;;20.35;;
57047;SDS011;42934;54.294;18.598;2022-11-23T12:54:24;54.13;;;19.30;;
57047;SDS011;42934;54.294;18.598;2022-11-23T12:57:07;46.90;;;19.38;;
57047;SDS011;42934;54.294;18.598;2022-11-23T12:59:45;53.20;;;20.13;;
57047;SDS011;42934;54.294;18.598;2022-11-23T13:02:44;42.05;;;17.20;;
57047;SDS011;42934;54.294;18.598;2022-11-23T13:08:46;50.55;;;18.65;;
57047;SDS011;42934;54.294;18.598;2022-11-23T13:11:45;49.22;;;18.15;;
57047;SDS011;42934;54.294;18.598;2022-11-23T13:14:38;45.90;;;18.02;;
57047;SDS011;42934;54.294;18.598;2022-11-23T13:17:19;46.78;;;17.73;;
57047;SDS011;42934;54.294;18.598;2022-11-23T13:20:18;49.10;;;17.65;;
57047;SDS011;42934;54.294;18.598;2022-11-23T13:22:57;47.85;;;18.08;;
57047;SDS011;42934;54.294;18.598;2022-11-23T13:25:28;41.50;;;16.02;;
57047;SDS011;42934;54.294;18.598;2022-11-23T13:27:59;42.72;;;17.67;;
57047;SDS011;42934;54.294;18.598;2022-11-23T13:30:32;44.80;;;17.02;;
57047;SDS011;42934;54.294;18.598;2022-11-23T13:33:24;47.72;;;17.88;;
57047;SDS011;42934;54.294;18.598;2022-11-23T13:36:04;46.45;;;17.77;;
57047;SDS011;42934;54.294;18.598;2022-11-23T13:38:44;40.47;;;17.23;;
57047;SDS011;42934;54.294;18.598;2022-11-23T13:44:24;42.38;;;16.08;;
57047;SDS011;42934;54.294;18.598;2022-11-23T13:47:01;45.33;;;17.42;;
57047;SDS011;42934;54.294;18.598;2022-11-23T13:49:46;41.00;;;15.98;;
57047;SDS011;42934;54.294;18.598;2022-11-23T13:52:22;44.58;;;17.75;;
57047;SDS011;42934;54.294;18.598;2022-11-23T13:55:00;41.75;;;16.33;;
57047;SDS011;42934;54.294;18.598;2022-11-23T13:57:36;44.83;;;17.67;;
57047;SDS011;42934;54.294;18.598;2022-11-23T14:06:24;43.60;;;17.52;;
57047;SDS011;42934;54.294;18.598;2022-11-23T14:09:15;45.92;;;16.58;;
57047;SDS011;42934;54.294;18.598;2022-11-23T14:14:46;47.75;;;18.98;;
57047;SDS011;42934;54.294;18.598;2022-11-23T14:20:39;45.90;;;17.63;;
57047;SDS011;42934;54.294;18.598;2022-11-23T14:23:30;47.10;;;18.23;;
57047;SDS011;42934;54.294;18.598;2022-11-23T14:26:36;46.47;;;16.70;;
57047;SDS011;42934;54.294;18.598;2022-11-23T14:29:18;52.38;;;19.42;;
57047;SDS011;42934;54.294;18.598;2022-11-23T14:32:00;51.47;;;19.30;;
57047;SDS011;42934;54.294;18.598;2022-11-23T14:34:45;44.83;;;18.05;;
57047;SDS011;42934;54.294;18.598;2022-11-23T14:37:24;40.85;;;17.10;;
57047;SDS011;42934;54.294;18.598;2022-11-23T14:40:11;44.85;;;17.88;;
57047;SDS011;42934;54.294;18.598;2022-11-23T14:42:51;41.95;;;17.58;;
57047;SDS011;42934;54.294;18.598;2022-11-23T14:45:22;47.70;;;18.90;;
57047;SDS011;42934;54.294;18.598;2022-11-23T14:47:55;49.08;;;20.35;;
57047;SDS011;42934;54.294;18.598;2022-11-23T14:50:26;50.40;;;19.98;;
57047;SDS011;42934;54.294;18.598;2022-11-23T14:52:56;43.70;;;18.70;;
57047;SDS011;42934;54.294;18.598;2022-11-23T14:55:27;47.83;;;18.42;;
57047;SDS011;42934;54.294;18.598;2022-11-23T14:58:00;43.58;;;18.13;;
57047;SDS011;42934;54.294;18.598;2022-11-23T15:00:32;46.50;;;18.42;;
57047;SDS011;42934;54.294;18.598;2022-11-23T15:03:07;41.35;;;17.20;;
57047;SDS011;42934;54.294;18.598;2022-11-23T15:06:04;35.83;;;15.77;;
57047;SDS011;42934;54.294;18.598;2022-11-23T15:08:39;35.63;;;15.27;;
57047;SDS011;42934;54.294;18.598;2022-11-23T15:11:13;37.78;;;16.08;;
57047;SDS011;42934;54.294;18.598;2022-11-23T15:13:49;37.50;;;16.73;;
57047;SDS011;42934;54.294;18.598;2022-11-23T15:16:20;39.05;;;17.08;;
57047;SDS011;42934;54.294;18.598;2022-11-23T15:18:50;40.38;;;16.75;;
57047;SDS011;42934;54.294;18.598;2022-11-23T15:21:20;45.70;;;18.43;;
57047;SDS011;42934;54.294;18.598;2022-11-23T15:23:54;40.97;;;18.40;;
57047;SDS011;42934;54.294;18.598;2022-11-23T15:26:27;37.33;;;17.38;;
57047;SDS011;42934;54.294;18.598;2022-11-23T15:29:29;36.90;;;16.50;;